sensor_id;sensor_type;location;lat;lon;timestamp;pressure;altitude;pressure_sealevel;temperature;humidity
11011;BME280;5558;42.702;23.178;2023-05-10T00:01:47;94239.91;;;7.38;100.00
11011;BME280;5558;42.702;23.178;2023-05-10T00:04:13;94229.63;;;7.36;100.00
11011;BME280;5558;42.702;23.178;2023-05-10T00:06:40;94227.56;;;7.38;100.00
11011;BME280;5558;42.702;23.178;2023-05-10T00:09:07;94221.81;;;7.41;100.00
11011;BME280;5558;42.702;23.178;2023-05-10T00:11:35;94221.50;;;7.38;100.00
11011;BME280;5558;42.702;23.178;2023-05-10T00:14:02;94225.75;;;7.39;100.00
11011;BME280;5558;42.702;23.178;2023-05-10T00:16:29;94213.25;;;7.34;100.00
11011;BME280;5558;42.702;23.178;2023-05-10T00:18:55;94221.72;;;7.36;100.00
11011;BME280;5558;42.702;23.178;2023-05-10T00:21:22;94217.38;;;7.30;100.00
11011;BME280;5558;42.702;23.178;2023-05-10T00:23:49;94216.25;;;7.26;100.00
11011;BME280;5558;42.702;23.178;2023-05-10T00:26:15;94214.84;;;7.24;100.00
11011;BME280;5558;42.702;23.178;2023-05-10T00:28:44;94210.06;;;7.21;100.00
11011;BME280;5558;42.702;23.178;2023-05-10T00:31:11;94202.38;;;7.19;100.00
11011;BME280;5558;42.702;23.178;2023-05-10T00:33:37;94207.06;;;7.17;100.00
11011;BME280;5558;42.702;23.178;2023-05-10T00:36:05;94203.09;;;7.15;100.00
11011;BME280;5558;42.702;23.178;2023-05-10T00:38:33;94200.69;;;7.13;100.00
11011;BME280;5558;42.702;23.178;2023-05-10T00:41:00;94206.38;;;7.10;100.00
11011;BME280;5558;42.702;23.178;2023-05-10T00:43:27;94189.69;;;7.05;100.00
11011;BME280;5558;42.702;23.178;2023-05-10T00:45:55;94195.75;;;7.05;100.00
11011;BME280;5558;42.702;23.178;2023-05-10T00:48:22;94200.22;;;7.05;100.00
11011;BME280;5558;42.702;23.178;2023-05-10T00:50:48;94190.47;;;7.05;100.00
11011;BME280;5558;42.702;23.178;2023-05-10T00:53:15;94191.75;;;7.03;100.00
11011;BME280;5558;42.702;23.178;2023-05-10T00:55:43;94189.69;;;7.05;100.00
11011;BME280;5558;42.702;23.178;2023-05-10T00:58:10;94200.56;;;7.08;100.00
11011;BME280;5558;42.702;23.178;2023-05-10T01:00:37;94192.22;;;7.00;100.00
11011;BME280;5558;42.702;23.178;2023-05-10T01:03:09;94186.16;;;6.99;100.00
11011;BME280;5558;42.702;23.178;2023-05-10T01:05:36;94197.91;;;6.97;100.00
11011;BME280;5558;42.702;23.178;2023-05-10T01:08:03;94186.84;;;6.95;100.00
11011;BME280;5558;42.702;23.178;2023-05-10T01:10:30;94184.22;;;6.95;100.00
11011;BME280;5558;42.702;23.178;2023-05-10T01:12:58;94177.56;;;6.92;100.00
11011;BME280;5558;42.702;23.178;2023-05-10T01:15:26;94188.56;;;6.89;100.00
11011;BME280;5558;42.702;23.178;2023-05-10T01:17:53;94167.75;;;6.88;100.00
11011;BME280;5558;42.702;23.178;2023-05-10T01:20:21;94167.28;;;6.91;100.00
11011;BME280;5558;42.702;23.178;2023-05-10T01:26:17;94171.97;;;6.89;100.00
11011;BME280;5558;42.702;23.178;2023-05-10T01:29:11;94171.59;;;6.85;100.00
11011;BME280;5558;42.702;23.178;2023-05-10T01:32:13;94160.31;;;6.85;100.00
11011;BME280;5558;42.702;23.178;2023-05-10T01:34:50;94157.34;;;6.81;100.00
11011;BME280;5558;42.702;23.178;2023-05-10T01:37:21;94131.13;;;6.63;100.00
11011;BME280;5558;42.702;23.178;2023-05-10T01:39:55;94152.06;;;6.81;100.00
11011;BME280;5558;42.702;23.178;2023-05-10T01:42:27;94149.69;;;6.80;100.00
11011;BME280;5558;42.702;23.178;2023-05-10T01:45:02;94141.88;;;6.73;100.00
11011;BME280;5558;42.702;23.178;2023-05-10T01:47:38;94148.06;;;6.79;100.00
11011;BME280;5558;42.702;23.178;2023-05-10T01:50:10;94148.06;;;6.79;100.00
11011;BME280;5558;42.702;23.178;2023-05-10T01:52:42;94151.97;;;6.76;100.00
11011;BME280;5558;42.702;23.178;2023-05-10T01:55:13;94145.06;;;6.75;100.00
11011;BME280;5558;42.702;23.178;2023-05-10T01:57:43;94150.91;;;6.77;100.00
11011;BME280;5558;42.702;23.178;2023-05-10T02:00:12;94141.66;;;6.75;100.00
11011;BME280;5558;42.702;23.178;2023-05-10T02:02:45;94153.44;;;6.72;100.00
11011;BME280;5558;42.702;23.178;2023-05-10T02:05:13;94147.59;;;6.70;100.00
11011;BME280;5558;42.702;23.178;2023-05-10T02:07:41;94142.78;;;6.67;100.00
11011;BME280;5558;42.702;23.178;2023-05-10T02:10:10;94141.88;;;6.73;100.00
11011;BME280;5558;42.702;23.178;2023-05-10T02:12:41;94149.41;;;6.70;100.00
11011;BME280;5558;42.702;23.178;2023-05-10T02:15:10;94136.16;;;6.65;100.00
11011;BME280;5558;42.702;23.178;2023-05-10T02:17:39;94135.72;;;6.68;100.00
11011;BME280;5558;42.702;23.178;2023-05-10T02:20:08;94132.41;;;6.61;100.00
11011;BME280;5558;42.702;23.178;2023-05-10T02:22:36;94129.19;;;6.59;100.00
11011;BME280;5558;42.702;23.178;2023-05-10T02:25:06;94130.88;;;6.53;100.00
11011;BME280;5558;42.702;23.178;2023-05-10T02:27:33;94117.41;;;6.50;100.00
11011;BME280;5558;42.702;23.178;2023-05-10T02:30:01;94111.34;;;6.49;100.00
11011;BME280;5558;42.702;23.178;2023-05-10T02:32:28;94112.03;;;6.45;100.00
11011;BME280;5558;42.702;23.178;2023-05-10T02:34:56;94104.81;;;6.40;100.00
11011;BME280;5558;42.702;23.178;2023-05-10T02:37:25;94093.63;;;6.33;100.00
11011;BME280;5558;42.702;23.178;2023-05-10T02:39:54;94092.34;;;6.24;100.00
11011;BME280;5558;42.702;23.178;2023-05-10T02:42:24;94085.59;;;6.16;100.00
11011;BME280;5558;42.702;23.178;2023-05-10T02:44:54;94084.91;;;6.09;100.00
11011;BME280;5558;42.702;23.178;2023-05-10T02:47:22;94068.53;;;5.96;100.00
11011;BME280;5558;42.702;23.178;2023-05-10T02:49:49;94051.31;;;5.88;100.00
11011;BME280;5558;42.702;23.178;2023-05-10T02:52:20;94044.31;;;5.82;100.00
11011;BME280;5558;42.702;23.178;2023-05-10T02:54:52;94030.91;;;5.72;100.00
11011;BME280;5558;42.702;23.178;2023-05-10T02:57:25;94011.59;;;5.67;100.00
11011;BME280;5558;42.702;23.178;2023-05-10T02:59:52;94008.84;;;5.62;100.00
11011;BME280;5558;42.702;23.178;2023-05-10T03:02:20;94004.28;;;5.57;100.00
11011;BME280;5558;42.702;23.178;2023-05-10T03:04:47;93997.22;;;5.58;100.00
11011;BME280;5558;42.702;23.178;2023-05-10T03:07:13;93976.84;;;5.53;100.00
11011;BME280;5558;42.702;23.178;2023-05-10T03:09:40;93981.09;;;5.54;100.00
11011;BME280;5558;42.702;23.178;2023-05-10T03:12:16;93977.91;;;5.52;100.00
11011;BME280;5558;42.702;23.178;2023-05-10T03:14:52;93972.97;;;5.44;100.00
11011;BME280;5558;42.702;23.178;2023-05-10T03:17:25;93984.97;;;5.52;100.00
11011;BME280;5558;42.702;23.178;2023-05-10T03:19:56;93984.97;;;5.52;100.00
11011;BME280;5558;42.702;23.178;2023-05-10T03:22:27;93972.28;;;5.49;100.00
11011;BME280;5558;42.702;23.178;2023-05-10T03:24:56;93982.34;;;5.52;100.00
11011;BME280;5558;42.702;23.178;2023-05-10T03:27:26;93975.63;;;5.56;100.00
11011;BME280;5558;42.702;23.178;2023-05-10T03:29:55;93972.19;;;5.55;100.00
11011;BME280;5558;42.702;23.178;2023-05-10T03:32:22;93979.84;;;5.57;100.00
11011;BME280;5558;42.702;23.178;2023-05-10T03:34:49;93974.13;;;5.60;100.00
11011;BME280;5558;42.702;23.178;2023-05-10T03:37:16;93963.84;;;5.58;100.00
11011;BME280;5558;42.702;23.178;2023-05-10T03:39:42;93969.34;;;5.57;100.00
11011;BME280;5558;42.702;23.178;2023-05-10T03:42:09;93963.84;;;5.58;100.00
11011;BME280;5558;42.702;23.178;2023-05-10T03:44:38;93973.59;;;5.58;100.00
11011;BME280;5558;42.702;23.178;2023-05-10T03:47:05;93982.47;;;5.57;100.00
11011;BME280;5558;42.702;23.178;2023-05-10T03:49:32;93976.22;;;5.58;100.00
11011;BME280;5558;42.702;23.178;2023-05-10T03:51:58;93973.00;;;5.56;100.00
11011;BME280;5558;42.702;23.178;2023-05-10T03:54:25;93972.78;;;5.57;100.00
11011;BME280;5558;42.702;23.178;2023-05-10T03:56:52;93974.34;;;5.58;100.00
11011;BME280;5558;42.702;23.178;2023-05-10T03:59:18;93973.13;;;5.61;100.00
11011;BME280;5558;42.702;23.178;2023-05-10T04:01:46;93985.66;;;5.59;100.00
11011;BME280;5558;42.702;23.178;2023-05-10T04:04:13;93973.94;;;5.61;100.00
11011;BME280;5558;42.702;23.178;2023-05-10T04:06:40;93987.84;;;5.62;100.00
11011;BME280;5558;42.702;23.178;2023-05-10T04:09:07;93981.81;;;5.61;100.00
11011;BME280;5558;42.702;23.178;2023-05-10T04:11:34;93987.72;;;5.57;100.00
11011;BME280;5558;42.702;23.178;2023-05-10T04:14:01;93976.97;;;5.58;100.00
11011;BME280;5558;42.702;23.178;2023-05-10T04:16:27;93975.97;;;5.59;100.00
11011;BME280;5558;42.702;23.178;2023-05-10T04:18:55;93983.50;;;5.56;100.00
11011;BME280;5558;42.702;23.178;2023-05-10T04:21:22;93976.84;;;5.53;100.00
11011;BME280;5558;42.702;23.178;2023-05-10T04:23:49;93992.84;;;5.52;100.00
11011;BME280;5558;42.702;23.178;2023-05-10T04:26:16;93993.66;;;5.52;100.00
11011;BME280;5558;42.702;23.178;2023-05-10T04:28:42;93988.97;;;5.54;100.00
11011;BME280;5558;42.702;23.178;2023-05-10T04:31:10;93987.94;;;5.55;100.00
11011;BME280;5558;42.702;23.178;2023-05-10T04:33:36;93984.50;;;5.55;100.00
11011;BME280;5558;42.702;23.178;2023-05-10T04:36:05;93993.78;;;5.57;100.00
11011;BME280;5558;42.702;23.178;2023-05-10T04:38:32;93996.75;;;5.61;100.00
11011;BME280;5558;42.702;23.178;2023-05-10T04:41:05;93990.69;;;5.60;100.00
11011;BME280;5558;42.702;23.178;2023-05-10T04:43:32;93988.31;;;5.70;100.00
11011;BME280;5558;42.702;23.178;2023-05-10T04:45:59;93999.63;;;5.71;100.00
11011;BME280;5558;42.702;23.178;2023-05-10T04:48:26;94000.06;;;5.68;100.00
11011;BME280;5558;42.702;23.178;2023-05-10T04:50:53;93989.94;;;5.71;100.00
11011;BME280;5558;42.702;23.178;2023-05-10T04:53:21;93990.94;;;5.70;100.00
11011;BME280;5558;42.702;23.178;2023-05-10T04:55:47;94000.78;;;5.75;100.00
11011;BME280;5558;42.702;23.178;2023-05-10T04:58:14;93990.28;;;5.75;100.00
11011;BME280;5558;42.702;23.178;2023-05-10T05:00:41;94003.09;;;5.94;100.00
11011;BME280;5558;42.702;23.178;2023-05-10T05:03:08;93996.47;;;5.92;100.00
11011;BME280;5558;42.702;23.178;2023-05-10T05:05:34;93989.50;;;5.86;100.00
11011;BME280;5558;42.702;23.178;2023-05-10T05:08:01;93988.03;;;5.90;100.00
11011;BME280;5558;42.702;23.178;2023-05-10T05:10:29;93985.97;;;5.92;100.00
11011;BME280;5558;42.702;23.178;2023-05-10T05:12:56;94003.69;;;5.96;100.00
11011;BME280;5558;42.702;23.178;2023-05-10T05:15:23;93996.69;;;5.90;100.00
11011;BME280;5558;42.702;23.178;2023-05-10T05:17:49;93994.53;;;5.87;100.00
11011;BME280;5558;42.702;23.178;2023-05-10T05:20:16;94005.50;;;5.84;100.00
11011;BME280;5558;42.702;23.178;2023-05-10T05:22:44;93995.41;;;5.81;100.00
11011;BME280;5558;42.702;23.178;2023-05-10T05:25:11;94010.06;;;5.89;100.00
11011;BME280;5558;42.702;23.178;2023-05-10T05:27:39;94007.19;;;5.90;100.00
11011;BME280;5558;42.702;23.178;2023-05-10T05:30:07;94020.88;;;5.81;100.00
11011;BME280;5558;42.702;23.178;2023-05-10T05:32:33;94024.22;;;5.88;100.00
11011;BME280;5558;42.702;23.178;2023-05-10T05:35:00;93995.13;;;5.60;100.00
11011;BME280;5558;42.702;23.178;2023-05-10T05:37:27;94033.81;;;5.82;100.00
11011;BME280;5558;42.702;23.178;2023-05-10T05:39:54;94034.22;;;5.79;100.00
11011;BME280;5558;42.702;23.178;2023-05-10T05:42:20;94031.19;;;5.82;100.00
11011;BME280;5558;42.702;23.178;2023-05-10T05:44:49;94031.06;;;5.89;100.00
11011;BME280;5558;42.702;23.178;2023-05-10T05:47:15;94034.41;;;5.96;100.00
11011;BME280;5558;42.702;23.178;2023-05-10T05:49:42;94023.53;;;5.92;100.00
11011;BME280;5558;42.702;23.178;2023-05-10T05:52:11;94030.75;;;5.97;100.00
11011;BME280;5558;42.702;23.178;2023-05-10T05:54:37;94034.41;;;6.07;100.00
11011;BME280;5558;42.702;23.178;2023-05-10T05:57:04;94034.75;;;5.99;100.00
11011;BME280;5558;42.702;23.178;2023-05-10T05:59:31;94043.31;;;6.06;100.00
11011;BME280;5558;42.702;23.178;2023-05-10T06:01:59;94050.97;;;6.08;100.00
11011;BME280;5558;42.702;23.178;2023-05-10T06:04:26;94044.69;;;6.09;100.00
11011;BME280;5558;42.702;23.178;2023-05-10T06:06:52;94035.78;;;6.10;100.00
11011;BME280;5558;42.702;23.178;2023-05-10T06:09:19;94044.03;;;6.13;100.00
11011;BME280;5558;42.702;23.178;2023-05-10T06:11:46;94048.59;;;6.18;100.00
11011;BME280;5558;42.702;23.178;2023-05-10T06:14:13;94035.91;;;6.15;100.00
11011;BME280;5558;42.702;23.178;2023-05-10T06:16:40;94039.66;;;6.19;100.00
11011;BME280;5558;42.702;23.178;2023-05-10T06:19:08;94042.88;;;6.33;100.00
11011;BME280;5558;42.702;23.178;2023-05-10T06:21:34;94038.06;;;6.30;100.00
11011;BME280;5558;42.702;23.178;2023-05-10T06:24:01;94027.31;;;6.31;100.00
11011;BME280;5558;42.702;23.178;2023-05-10T06:26:28;94043.31;;;6.41;100.00
11011;BME280;5558;42.702;23.178;2023-05-10T06:28:55;94040.50;;;6.43;100.00
11011;BME280;5558;42.702;23.178;2023-05-10T06:31:22;94040.69;;;6.41;100.00
11011;BME280;5558;42.702;23.178;2023-05-10T06:33:48;94047.00;;;6.40;100.00
11011;BME280;5558;42.702;23.178;2023-05-10T06:36:16;94051.91;;;6.48;100.00
11011;BME280;5558;42.702;23.178;2023-05-10T06:38:43;94046.50;;;6.55;100.00
11011;BME280;5558;42.702;23.178;2023-05-10T06:41:10;94049.25;;;6.60;100.00
11011;BME280;5558;42.702;23.178;2023-05-10T06:43:36;94044.00;;;6.60;100.00
11011;BME280;5558;42.702;23.178;2023-05-10T06:46:05;94038.84;;;6.65;100.00
11011;BME280;5558;42.702;23.178;2023-05-10T06:48:32;94037.69;;;6.72;100.00
11011;BME280;5558;42.702;23.178;2023-05-10T06:50:59;94039.28;;;6.73;100.00
11011;BME280;5558;42.702;23.178;2023-05-10T06:53:27;94031.75;;;6.77;100.00
11011;BME280;5558;42.702;23.178;2023-05-10T06:55:54;94046.06;;;6.69;100.00
11011;BME280;5558;42.702;23.178;2023-05-10T06:58:21;94034.16;;;6.67;100.00
11011;BME280;5558;42.702;23.178;2023-05-10T07:00:47;94040.56;;;6.71;100.00
11011;BME280;5558;42.702;23.178;2023-05-10T07:03:14;94030.84;;;6.71;100.00
11011;BME280;5558;42.702;23.178;2023-05-10T07:05:41;94033.25;;;6.73;100.00
11011;BME280;5558;42.702;23.178;2023-05-10T07:08:07;94030.19;;;6.64;100.00
11011;BME280;5558;42.702;23.178;2023-05-10T07:10:36;94012.66;;;6.70;100.00
11011;BME280;5558;42.702;23.178;2023-05-10T07:13:02;94024.88;;;6.76;100.00
11011;BME280;5558;42.702;23.178;2023-05-10T07:15:29;94015.84;;;6.72;100.00
11011;BME280;5558;42.702;23.178;2023-05-10T07:17:56;94008.50;;;6.85;100.00
11011;BME280;5558;42.702;23.178;2023-05-10T07:20:22;94017.88;;;6.93;100.00
11011;BME280;5558;42.702;23.178;2023-05-10T07:22:49;94012.72;;;6.98;100.00
11011;BME280;5558;42.702;23.178;2023-05-10T07:25:16;94014.19;;;6.94;100.00
11011;BME280;5558;42.702;23.178;2023-05-10T07:27:44;94014.06;;;7.00;100.00
11011;BME280;5558;42.702;23.178;2023-05-10T07:30:12;94006.59;;;7.09;100.00
11011;BME280;5558;42.702;23.178;2023-05-10T07:32:39;94004.63;;;7.16;100.00
11011;BME280;5558;42.702;23.178;2023-05-10T07:35:08;94006.09;;;7.23;100.00
11011;BME280;5558;42.702;23.178;2023-05-10T07:37:34;94008.03;;;7.28;100.00
11011;BME280;5558;42.702;23.178;2023-05-10T07:40:01;94005.16;;;7.29;100.00
11011;BME280;5558;42.702;23.178;2023-05-10T07:42:28;94002.00;;;7.16;100.00
11011;BME280;5558;42.702;23.178;2023-05-10T07:44:56;94008.66;;;7.18;100.00
11011;BME280;5558;42.702;23.178;2023-05-10T07:47:23;94013.28;;;7.28;100.00
11011;BME280;5558;42.702;23.178;2023-05-10T07:49:49;94009.59;;;7.40;100.00
11011;BME280;5558;42.702;23.178;2023-05-10T07:52:16;93994.19;;;7.21;100.00
11011;BME280;5558;42.702;23.178;2023-05-10T07:54:43;94006.94;;;7.12;100.00
11011;BME280;5558;42.702;23.178;2023-05-10T07:57:10;94012.44;;;7.11;100.00
11011;BME280;5558;42.702;23.178;2023-05-10T07:59:36;94003.72;;;7.22;100.00
11011;BME280;5558;42.702;23.178;2023-05-10T08:02:04;94014.38;;;7.43;100.00
11011;BME280;5558;42.702;23.178;2023-05-10T08:04:31;94013.91;;;7.47;100.00
11011;BME280;5558;42.702;23.178;2023-05-10T08:06:58;94004.91;;;7.59;100.00
11011;BME280;5558;42.702;23.178;2023-05-10T08:09:25;94002.88;;;7.50;100.00
11011;BME280;5558;42.702;23.178;2023-05-10T08:11:52;94004.16;;;7.47;100.00
11011;BME280;5558;42.702;23.178;2023-05-10T08:14:18;94000.91;;;7.57;100.00
11011;BME280;5558;42.702;23.178;2023-05-10T08:16:45;94002.91;;;7.66;100.00
11011;BME280;5558;42.702;23.178;2023-05-10T08:19:13;94010.28;;;7.81;100.00
11011;BME280;5558;42.702;23.178;2023-05-10T08:21:44;94006.59;;;7.82;100.00
11011;BME280;5558;42.702;23.178;2023-05-10T08:24:11;94015.94;;;7.73;100.00
11011;BME280;5558;42.702;23.178;2023-05-10T08:26:38;94018.44;;;7.96;100.00
11011;BME280;5558;42.702;23.178;2023-05-10T08:29:04;94014.28;;;8.00;100.00
11011;BME280;5558;42.702;23.178;2023-05-10T08:31:31;94010.19;;;8.09;100.00
11011;BME280;5558;42.702;23.178;2023-05-10T08:33:58;93998.69;;;7.98;100.00
11011;BME280;5558;42.702;23.178;2023-05-10T08:36:26;94007.00;;;8.07;100.00
11011;BME280;5558;42.702;23.178;2023-05-10T08:38:54;93995.13;;;8.04;100.00
11011;BME280;5558;42.702;23.178;2023-05-10T08:41:21;94012.75;;;8.04;100.00
11011;BME280;5558;42.702;23.178;2023-05-10T08:43:51;93988.31;;;7.75;100.00
11011;BME280;5558;42.702;23.178;2023-05-10T08:46:20;94002.69;;;7.84;100.00
11011;BME280;5558;42.702;23.178;2023-05-10T08:48:48;94003.09;;;7.76;100.00
11011;BME280;5558;42.702;23.178;2023-05-10T08:51:18;94007.56;;;7.92;100.00
11011;BME280;5558;42.702;23.178;2023-05-10T08:53:46;94003.09;;;8.09;100.00
11011;BME280;5558;42.702;23.178;2023-05-10T08:56:13;94003.69;;;8.28;100.00
11011;BME280;5558;42.702;23.178;2023-05-10T08:58:43;94013.56;;;8.37;100.00
11011;BME280;5558;42.702;23.178;2023-05-10T09:01:11;93957.25;;;7.61;100.00
11011;BME280;5558;42.702;23.178;2023-05-10T09:03:39;94005.34;;;8.01;100.00
11011;BME280;5558;42.702;23.178;2023-05-10T09:06:06;93998.16;;;8.13;100.00
11011;BME280;5558;42.702;23.178;2023-05-10T09:08:33;94013.97;;;8.29;100.00
11011;BME280;5558;42.702;23.178;2023-05-10T09:11:02;94011.41;;;8.18;100.00
11011;BME280;5558;42.702;23.178;2023-05-10T09:13:29;94004.22;;;8.13;100.00
11011;BME280;5558;42.702;23.178;2023-05-10T09:15:56;94002.53;;;8.07;100.00
11011;BME280;5558;42.702;23.178;2023-05-10T09:18:23;93999.91;;;8.24;100.00
11011;BME280;5558;42.702;23.178;2023-05-10T09:20:49;94001.03;;;8.28;100.00
11011;BME280;5558;42.702;23.178;2023-05-10T09:23:16;94009.09;;;8.38;100.00
11011;BME280;5558;42.702;23.178;2023-05-10T09:25:43;94004.44;;;8.83;100.00
11011;BME280;5558;42.702;23.178;2023-05-10T09:28:11;93999.81;;;8.74;100.00
11011;BME280;5558;42.702;23.178;2023-05-10T09:30:38;94002.84;;;8.60;100.00
11011;BME280;5558;42.702;23.178;2023-05-10T09:33:05;94003.97;;;8.70;100.00
11011;BME280;5558;42.702;23.178;2023-05-10T09:35:33;93995.34;;;8.36;100.00
11011;BME280;5558;42.702;23.178;2023-05-10T09:38:02;93999.91;;;8.24;100.00
11011;BME280;5558;42.702;23.178;2023-05-10T09:40:29;93991.06;;;8.30;100.00
11011;BME280;5558;42.702;23.178;2023-05-10T09:42:57;93996.75;;;8.60;100.00
11011;BME280;5558;42.702;23.178;2023-05-10T09:45:27;94001.06;;;8.49;100.00
11011;BME280;5558;42.702;23.178;2023-05-10T09:47:55;93985.63;;;8.58;100.00
11011;BME280;5558;42.702;23.178;2023-05-10T09:50:22;93992.09;;;8.67;100.00
11011;BME280;5558;42.702;23.178;2023-05-10T09:52:50;93981.78;;;8.87;100.00
11011;BME280;5558;42.702;23.178;2023-05-10T09:55:18;93987.13;;;8.71;100.00
11011;BME280;5558;42.702;23.178;2023-05-10T09:57:45;93990.66;;;8.81;100.00
11011;BME280;5558;42.702;23.178;2023-05-10T10:00:17;93963.06;;;8.89;100.00
11011;BME280;5558;42.702;23.178;2023-05-10T10:02:47;93977.78;;;8.63;100.00
11011;BME280;5558;42.702;23.178;2023-05-10T10:05:14;93970.31;;;8.55;100.00
11011;BME280;5558;42.702;23.178;2023-05-10T10:07:41;93979.09;;;8.82;100.00
11011;BME280;5558;42.702;23.178;2023-05-10T10:10:09;93973.91;;;9.14;100.00
11011;BME280;5558;42.702;23.178;2023-05-10T10:12:39;93978.06;;;9.31;100.00
11011;BME280;5558;42.702;23.178;2023-05-10T10:15:07;93959.63;;;9.10;100.00
11011;BME280;5558;42.702;23.178;2023-05-10T10:17:35;93962.69;;;9.02;100.00
11011;BME280;5558;42.702;23.178;2023-05-10T10:20:06;93967.00;;;9.08;100.00
11011;BME280;5558;42.702;23.178;2023-05-10T10:22:33;93965.84;;;8.77;100.00
11011;BME280;5558;42.702;23.178;2023-05-10T10:25:00;93974.50;;;8.73;100.00
11011;BME280;5558;42.702;23.178;2023-05-10T10:27:36;93958.28;;;8.86;100.00
11011;BME280;5558;42.702;23.178;2023-05-10T10:30:16;93965.66;;;8.84;100.00
11011;BME280;5558;42.702;23.178;2023-05-10T10:35:39;93978.34;;;8.87;100.00
11011;BME280;5558;42.702;23.178;2023-05-10T10:38:08;93965.47;;;8.90;100.00
11011;BME280;5558;42.702;23.178;2023-05-10T10:40:34;93969.75;;;8.75;100.00
11011;BME280;5558;42.702;23.178;2023-05-10T10:43:22;93940.97;;;8.73;100.00
11011;BME280;5558;42.702;23.178;2023-05-10T10:46:10;93975.00;;;8.91;100.00
11011;BME280;5558;42.702;23.178;2023-05-10T10:48:37;93967.09;;;8.75;100.00
11011;BME280;5558;42.702;23.178;2023-05-10T10:51:06;93962.44;;;8.82;100.00
11011;BME280;5558;42.702;23.178;2023-05-10T10:53:32;93975.97;;;8.85;100.00
11011;BME280;5558;42.702;23.178;2023-05-10T10:56:05;93978.91;;;8.89;100.00
11011;BME280;5558;42.702;23.178;2023-05-10T10:58:33;93969.28;;;8.78;100.00
11011;BME280;5558;42.702;23.178;2023-05-10T11:01:14;93974.66;;;8.66;100.00
11011;BME280;5558;42.702;23.178;2023-05-10T11:03:56;93967.47;;;8.61;100.00
11011;BME280;5558;42.702;23.178;2023-05-10T11:06:42;93964.53;;;8.80;100.00
11011;BME280;5558;42.702;23.178;2023-05-10T11:09:10;93964.34;;;9.08;100.00
11011;BME280;5558;42.702;23.178;2023-05-10T11:11:48;93957.03;;;9.15;100.00
11011;BME280;5558;42.702;23.178;2023-05-10T11:14:20;93952.63;;;8.99;100.00
11011;BME280;5558;42.702;23.178;2023-05-10T11:16:47;93948.63;;;9.18;100.00
11011;BME280;5558;42.702;23.178;2023-05-10T11:19:15;93954.28;;;9.05;100.00
11011;BME280;5558;42.702;23.178;2023-05-10T11:21:47;93961.41;;;9.04;100.00
11011;BME280;5558;42.702;23.178;2023-05-10T11:24:15;93955.16;;;8.89;100.00
11011;BME280;5558;42.702;23.178;2023-05-10T11:26:42;93958.22;;;9.02;100.00
11011;BME280;5558;42.702;23.178;2023-05-10T11:29:09;93955.38;;;9.09;100.00
11011;BME280;5558;42.702;23.178;2023-05-10T11:31:42;93946.44;;;8.88;100.00
11011;BME280;5558;42.702;23.178;2023-05-10T11:34:10;93951.69;;;8.88;100.00
11011;BME280;5558;42.702;23.178;2023-05-10T11:36:36;93953.50;;;8.83;100.00
11011;BME280;5558;42.702;23.178;2023-05-10T11:39:05;93951.69;;;8.88;100.00
11011;BME280;5558;42.702;23.178;2023-05-10T11:41:32;93950.44;;;8.91;100.00
11011;BME280;5558;42.702;23.178;2023-05-10T11:43:59;93958.09;;;8.92;100.00
11011;BME280;5558;42.702;23.178;2023-05-10T11:46:27;93940.53;;;9.03;100.00
11011;BME280;5558;42.702;23.178;2023-05-10T11:48:57;93955.78;;;9.22;100.00
11011;BME280;5558;42.702;23.178;2023-05-10T11:51:25;93943.34;;;9.18;100.00
11011;BME280;5558;42.702;23.178;2023-05-10T11:53:54;93948.22;;;9.04;100.00
11011;BME280;5558;42.702;23.178;2023-05-10T11:56:22;93951.47;;;9.11;100.00
11011;BME280;5558;42.702;23.178;2023-05-10T11:58:55;93917.38;;;9.10;100.00
11011;BME280;5558;42.702;23.178;2023-05-10T12:01:22;93928.81;;;9.20;100.00
11011;BME280;5558;42.702;23.178;2023-05-10T12:03:50;93944.81;;;9.35;100.00
11011;BME280;5558;42.702;23.178;2023-05-10T12:06:18;93947.31;;;9.20;100.00
11011;BME280;5558;42.702;23.178;2023-05-10T12:08:46;93950.69;;;9.42;100.00
11011;BME280;5558;42.702;23.178;2023-05-10T12:11:13;93940.09;;;9.64;100.00
11011;BME280;5558;42.702;23.178;2023-05-10T12:13:43;93947.31;;;9.73;100.00
11011;BME280;5558;42.702;23.178;2023-05-10T12:16:16;93945.00;;;9.82;100.00
11011;BME280;5558;42.702;23.178;2023-05-10T12:18:44;93944.88;;;9.40;100.00
11011;BME280;5558;42.702;23.178;2023-05-10T12:21:11;93954.34;;;9.36;100.00
11011;BME280;5558;42.702;23.178;2023-05-10T12:23:39;93947.75;;;9.39;100.00
11011;BME280;5558;42.702;23.178;2023-05-10T12:26:06;93943.53;;;9.11;100.00
11011;BME280;5558;42.702;23.178;2023-05-10T12:28:33;93947.00;;;9.17;100.00
11011;BME280;5558;42.702;23.178;2023-05-10T12:31:02;93939.06;;;9.38;100.00
11011;BME280;5558;42.702;23.178;2023-05-10T12:33:35;93940.91;;;9.38;100.00
11011;BME280;5558;42.702;23.178;2023-05-10T12:36:04;93956.34;;;9.24;100.00
11011;BME280;5558;42.702;23.178;2023-05-10T12:38:33;93943.28;;;9.13;100.00
11011;BME280;5558;42.702;23.178;2023-05-10T12:41:02;93871.28;;;8.69;100.00
11011;BME280;5558;42.702;23.178;2023-05-10T12:43:29;93935.41;;;9.18;100.00
11011;BME280;5558;42.702;23.178;2023-05-10T12:45:56;93925.41;;;9.20;100.00
11011;BME280;5558;42.702;23.178;2023-05-10T12:48:25;93927.53;;;8.96;100.00
11011;BME280;5558;42.702;23.178;2023-05-10T12:50:54;93930.34;;;8.90;100.00
11011;BME280;5558;42.702;23.178;2023-05-10T12:53:20;93920.03;;;8.88;100.00
11011;BME280;5558;42.702;23.178;2023-05-10T12:55:47;93919.50;;;8.86;100.00
11011;BME280;5558;42.702;23.178;2023-05-10T12:58:14;93905.75;;;8.84;100.00
11011;BME280;5558;42.702;23.178;2023-05-10T13:00:40;93905.19;;;8.82;100.00
11011;BME280;5558;42.702;23.178;2023-05-10T13:03:09;93918.31;;;8.99;100.00
11011;BME280;5558;42.702;23.178;2023-05-10T13:05:37;93901.44;;;9.00;100.00
11011;BME280;5558;42.702;23.178;2023-05-10T13:08:03;93894.91;;;9.07;100.00
11011;BME280;5558;42.702;23.178;2023-05-10T13:10:30;93899.94;;;9.09;100.00
11011;BME280;5558;42.702;23.178;2023-05-10T13:12:58;93895.25;;;8.89;100.00